Terminal Aerodrome Forecast
Issued by NWS

Home | Current Version | Previous Version | Text Only | Print | Product List | Glossary On
Versions: 1 2 3 4 5 6 7 8 9 10 11 12 13 14 15 16
838
FTUS46 KEKA 241133
TAFCEC
TAF
KCEC 241133Z 2412/2512 17008KT P6SM FEW250
     FM242000 19005KT P6SM SCT008 BKN250
     FM250200 VRB03KT 5SM BR BKN008=

USA.gov is the U.S. government's official web portal to all federal, state and local government web resources and services.